Date,TemperatureHighF,TemperatureAvgF,TemperatureLowF,DewpointHighF,DewpointAvgF,DewpointLowF,HumidityHigh,HumidityAvg,HumidityLow,PressureMaxIn,PressureMinIn,WindSpeedMaxMPH,WindSpeedAvgMPH,GustSpeedMaxMPH,PrecipitationSumIn
2013-2-1,38,29,24,-100,-100,-100,0,0,100,0.00,40.00,2,1,7,0.00
2013-2-2,42,29,23,-100,-100,-100,0,0,100,0.00,40.00,2,1,6,0.00
2013-2-3,37,28,23,-100,-100,-100,0,0,100,0.00,40.00,3,2,6,0.00
2013-2-4,38,31,26,-100,-100,-100,0,0,100,0.00,40.00,2,2,7,0.00
2013-2-5,40,32,27,-100,-100,-100,0,0,100,0.00,40.00,3,2,8,0.00
2013-2-6,32,25,19,-100,-100,-100,0,0,100,0.00,40.00,3,1,6,0.00
2013-2-7,34,26,19,-100,-100,-100,0,0,100,0.00,40.00,3,2,8,0.00
2013-2-8,31,25,20,-100,-100,-100,0,0,100,0.00,40.00,4,2,9,0.00
2013-2-9,31,24,18,-100,-100,-100,0,0,100,0.00,40.00,5,4,12,0.00
2013-2-10,27,20,14,-100,-100,-100,0,0,100,0.00,40.00,5,4,12,0.00
2013-2-11,29,19,11,-100,-100,-100,0,0,100,0.00,40.00,2,-42,6,0.00
2013-2-12,31,25,19,-100,-100,-100,0,0,100,0.00,40.00,2,1,6,0.00
2013-2-13,34,28,24,-100,-100,-100,0,0,100,0.00,40.00,2,1,7,0.00
2013-2-14,35,26,18,-100,-100,-100,0,0,100,0.00,40.00,3,2,8,0.00
2013-2-15,41,29,20,-100,-100,-100,0,0,100,0.00,40.00,3,1,8,0.00
2013-2-16,43,33,24,-100,-100,-100,0,0,100,0.00,40.00,3,2,9,0.01
2013-2-17,29,22,15,-100,-100,-100,0,0,100,0.00,40.00,3,1,8,0.01
2013-2-18,32,21,12,-100,-100,-100,0,0,100,0.00,40.00,2,1,7,0.00
2013-2-19,33,25,20,-100,-100,-100,0,0,100,0.00,40.00,3,1,8,0.01
2013-2-20,30,22,13,-100,-100,-100,0,0,100,0.00,40.00,2,1,6,0.01
2013-2-21,28,17,7,-100,-100,-100,0,0,100,0.00,40.00,3,1,6,0.00
2013-2-22,27,22,16,-100,-100,-100,0,0,100,0.00,40.00,3,2,7,0.01
2013-2-23,26,20,15,-100,-100,-100,0,0,100,0.00,40.00,4,2,9,0.03
2013-2-24,29,18,9,-100,-100,-100,0,0,100,0.00,40.00,2,1,6,0.01
2013-2-25,26,20,14,-100,-100,-100,0,0,100,0.00,40.00,3,2,7,0.01
2013-2-26,26,17,12,-100,-100,-100,0,0,100,0.00,40.00,2,1,5,0.01
2013-2-27,34,21,13,-100,-100,-100,0,0,100,0.00,40.00,2,1,6,0.00
2013-2-28,34,28,21,-100,-100,-100,0,0,100,0.00,40.00,2,1,6,0.02